Aérodrome :
LOGIN :

S'inscrire | Disclaimer

   EN    FR    IT 

 










Légende :    VFR   VFR Marginal   IFR   IFR Intensif   IFR Très Intensif
Visi : 
Plafond : 
>= 8 km
>= 3000ft
5 à 8 km
1000 à 3000 ft
1500m à 5 km
500 à 1000 ft
800 à 1500m
200 à 500 ft
< 800m
< 200 ft
Symboles :   Orages  Brouillard  Fortes neiges  Fortes précipitations  Vent > 20 kt
SIGMETs :   Divers  Orages  Givrage  Turbulence  Onde Orograph.  Cendres Volcan.






- Altitude de l'aérodrome : 2551 ft
- Code IATA : TUU


OETB - Tabuk

DERNIER METAR :
  • 072100Z 02004KT CAVOK 09/00 Q1019 NOSIG

METARs EXPIRÉS :
  • 072000Z 36005KT CAVOK 10/00 Q1019 NOSIG
  • 071900Z 00000KT CAVOK 11/00 Q1018 NOSIG

TAF TAF OETB
Valide du 07 à 12h jusqu'au 08 à 18h UTC


071100Z 0712/0818 35008KT 9999 FEW040
BECMG 0720/0722 VRB03KT
PROB30
TEMPO 0722/0804 3000 BR
BECMG 0810/0812 36008KT



MET'MAP, la Météo Aéronautique d'un coup d'oeil ! - Copyright ORBIFLY Décembre 2007 - Disclaimer

ORBIFLY MET'MAP TEAM :

Programmation & Développement : Alexandra Zaïnal
Sur une idée originale de : Baudouin d'Aumeries
Assistance à la programmation : Marc-Olivier Méhu
Soutien technique & logistique : Manuel Goepfert

Contact : metmap@orbifly.com




SOURCES & CREDITS :

   NOAA